Pagrindinis puslapis
METAR-TAF:

METAR-TAF

Oro uostai :

Ušakas, Turkija

platuma: 38-40N, ilguma: 029-25E, Aukštis: 919 m

Dabartinis oras

Ataskaita buvo paskelbta 1 valandą ir 21 minutes, ne 05:50 UTC
Ramus vėjas
Temperatūra 20°C
Drėgmė 60%
Slėgis 1018 hPa
Matomumas 10 km arba daugiau
nėra debesų žemiau 1500 m ir nėra kamuolinių lietaus debesų

METAR: LTBO 180550Z 00000KT CAVOK 20/12 Q1018

Laikas: 10:11 (07:11 UTC)

Prognozė

Ataskaita buvo paskelbta 2 valandos ir 31 minutes, ne 04:40 UTC
Prognozė galioja nuo 18 metu 06 UTC su 18 metu 15 UTC
Vėjas 2 kt nuo kintamojo kryptimis
Matomumas 10 km arba daugiau
nėra debesų žemiau 1500 m ir nėra kamuolinių lietaus debesų
Tapsmas
nuo 18 metu 06 UTC su 18 metu 09 UTC
Išsisklaidę debesys ne aukštis 4000 ft
Laikinai
nuo 18 metu 12 UTC su 18 metu 15 UTC
Vėjas 12 kt iš Vakarų

TAF: LTBO 180440Z 1806/1815 VRB02KT CAVOK BECMG 1806/1809 SCT040 TEMPO 1812/1815 27012KT

Orai ataskaitas ir orų prognozės (METAR, TAF).

turimą stotys yra geltonos ir raudonos taškus žemėlapyje.

Perkelti pele per norėdami pamatyti stoties vardą.

Tada spustelėkite, norėdami matyti oro stebėjimo ir prognozės.

Norėdami pakeisti žemėlapį: spustelėkite ant žalios mygtukų su juodo kryžiaus žemyn,; žalią mygtuką su brūkšneliu, jei norite nutolinti; arba žalių rodyklių gretimoms žemėlapius.


METAR-TAF: